createdAt,value
2022-07-29T00:00:17.750Z,100927.72
2022-07-29T00:05:19.712Z,100924.28
2022-07-29T00:10:21.654Z,100906.06
2022-07-29T00:15:23.791Z,100939.69
2022-07-29T00:20:26.172Z,100957.41
2022-07-29T00:25:28.315Z,100951.69
2022-07-29T00:30:30.410Z,100935.41
2022-07-29T00:35:47.716Z,100917.94
2022-07-29T00:40:49.634Z,100910.59
2022-07-29T00:45:51.468Z,100915.47
2022-07-29T00:50:53.748Z,100915.47
2022-07-29T00:55:56.664Z,100909.38
2022-07-29T01:00:59.415Z,100900.91
2022-07-29T01:06:01.851Z,100890.41
2022-07-29T01:11:04.366Z,100883.56
2022-07-29T01:16:19.287Z,100881.75
2022-07-29T01:21:59.032Z,100883.81
2022-07-29T01:27:27.799Z,100879.41
2022-07-29T01:32:36.747Z,100881.13
2022-07-29T01:37:48.293Z,100880.03
2022-07-29T01:42:53.683Z,100881.13
2022-07-29T01:48:19.330Z,100861.31
2022-07-29T01:53:44.146Z,100856.56
2022-07-29T01:58:47.353Z,100863.41
2022-07-29T02:03:50.348Z,100868.66
2022-07-29T02:08:54.692Z,100869.66
2022-07-29T02:13:59.494Z,100854.47
2022-07-29T02:19:04.135Z,100865.13
2022-07-29T02:24:06.530Z,100864.28
2022-07-29T02:29:10.273Z,100874.75
2022-07-29T02:34:13.867Z,100881.75
2022-07-29T02:39:22.660Z,100879.19
2022-07-29T02:44:31.239Z,100865.00
2022-07-29T02:50:01.271Z,100862.44
2022-07-29T02:55:16.128Z,100865.97
2022-07-29T03:00:19.091Z,100873.69
2022-07-29T03:05:22.213Z,100874.41
2022-07-29T03:10:26.612Z,100865.72
2022-07-29T03:15:28.916Z,100867.69
2022-07-29T03:20:31.355Z,100863.03
2022-07-29T03:25:33.053Z,100867.69
2022-07-29T03:30:34.878Z,100877.56
2022-07-29T03:35:36.910Z,100877.56
2022-07-29T03:40:52.650Z,100881.59
2022-07-29T03:45:56.223Z,100880.88
2022-07-29T03:50:58.165Z,100881.59
2022-07-29T03:56:01.788Z,100880.13
2022-07-29T04:01:04.009Z,100870.59
2022-07-29T04:06:07.680Z,100869.16
2022-07-29T04:11:10.092Z,100860.09
2022-07-29T04:16:11.922Z,100862.94
2022-07-29T04:21:13.913Z,100851.44
2022-07-29T04:26:16.261Z,100869.38
2022-07-29T04:31:21.273Z,100871.09
2022-07-29T04:36:28.808Z,100892.25
2022-07-29T04:41:33.016Z,100899.69
2022-07-29T04:46:36.662Z,100892.75
2022-07-29T04:51:39.348Z,100878.44
2022-07-29T04:56:41.236Z,100875.50
2022-07-29T05:01:43.346Z,100878.44
2022-07-29T05:06:45.264Z,100878.06
2022-07-29T05:11:47.141Z,100880.28
2022-07-29T05:16:52.441Z,100886.25
2022-07-29T05:21:54.489Z,100880.50
2022-07-29T05:26:56.437Z,100878.44
2022-07-29T05:31:58.663Z,100879.06
2022-07-29T05:37:00.809Z,100886.50
2022-07-29T05:42:03.370Z,100898.00
2022-07-29T05:47:05.459Z,100898.22
2022-07-29T05:52:07.568Z,100912.69
2022-07-29T05:57:09.742Z,100911.81
2022-07-29T06:02:12.683Z,100922.22
2022-07-29T06:07:15.041Z,100913.28
2022-07-29T06:12:16.983Z,100919.53
2022-07-29T06:17:18.877Z,100924.38
2022-07-29T06:22:20.748Z,100931.72
2022-07-29T06:27:22.924Z,100935.03
2022-07-29T06:32:27.477Z,100937.94
2022-07-29T06:37:29.854Z,100945.16
2022-07-29T06:42:34.659Z,100950.81
2022-07-29T06:47:36.576Z,100945.69
2022-07-29T06:52:38.548Z,100952.75
2022-07-29T06:57:40.306Z,100950.47
2022-07-29T07:02:42.294Z,100962.69
2022-07-29T07:07:44.212Z,100958.69
2022-07-29T07:12:46.115Z,100965.47
2022-07-29T07:17:48.102Z,100966.34
2022-07-29T07:22:50.370Z,100962.56
2022-07-29T07:27:52.575Z,100963.53
2022-07-29T07:32:54.922Z,100976.38
2022-07-29T07:37:57.644Z,100970.47
2022-07-29T07:42:59.606Z,100981.13
2022-07-29T07:48:01.793Z,100981.28
2022-07-29T07:53:03.763Z,100980.41
2022-07-29T07:58:05.615Z,100987.53
2022-07-29T08:03:16.862Z,100977.72
2022-07-29T08:08:19.574Z,100978.38
2022-07-29T08:13:22.868Z,100981.28
2022-07-29T08:18:30.562Z,100966.88
2022-07-29T08:23:51.446Z,100989.97
2022-07-29T08:28:56.301Z,100990.44
2022-07-29T08:34:00.955Z,100999.63
2022-07-29T08:39:04.677Z,100996.31
2022-07-29T08:44:06.757Z,101000.75
2022-07-29T08:49:08.617Z,101004.72
2022-07-29T08:54:11.450Z,101002.69
2022-07-29T08:59:14.530Z,101011.94
2022-07-29T09:04:19.430Z,101018.41
2022-07-29T09:09:21.623Z,101016.19
2022-07-29T09:14:23.549Z,101019.97
2022-07-29T09:19:27.229Z,101009.84
2022-07-29T09:24:35.612Z,101010.78
2022-07-29T09:29:39.083Z,101012.53
2022-07-29T09:34:40.826Z,101013.19
2022-07-29T09:39:47.317Z,101015.53
2022-07-29T09:44:51.406Z,101023.31
2022-07-29T09:50:01.253Z,101023.31
2022-07-29T09:55:08.039Z,101025.25
2022-07-29T10:00:11.690Z,101028.97
2022-07-29T10:05:36.362Z,101019.69
2022-07-29T10:10:41.141Z,101017.59
2022-07-29T10:15:47.027Z,101024.94
2022-07-29T10:20:49.443Z,101026.91
2022-07-29T10:25:51.661Z,101024.69
2022-07-29T10:31:00.441Z,101009.84
2022-07-29T10:36:14.371Z,101012.34
2022-07-29T10:41:31.223Z,101006.22
2022-07-29T10:46:40.117Z,101012.69
2022-07-29T10:52:07.458Z,101016.16
2022-07-29T10:57:53.057Z,101005.25
2022-07-29T11:02:56.364Z,101007.81
2022-07-29T11:08:20.447Z,101013.31
2022-07-29T11:13:46.569Z,101014.38
2022-07-29T11:19:13.860Z,101015.50
2022-07-29T11:24:18.585Z,101011.63
2022-07-29T11:29:32.459Z,101008.06
2022-07-29T11:34:42.547Z,100996.84
2022-07-29T11:39:54.505Z,100998.91
2022-07-29T11:50:38.063Z,101005.03
2022-07-29T11:55:51.571Z,101003.28
2022-07-29T12:00:55.622Z,101005.25
2022-07-29T12:05:58.091Z,101007.81
2022-07-29T12:07:02.021Z,100997.41
2022-07-29T12:11:00.694Z,101009.00
2022-07-29T12:16:04.395Z,101008.56
2022-07-29T12:21:06.265Z,101008.56
2022-07-29T12:26:11.108Z,101012.53
2022-07-29T12:31:43.961Z,101006.56
2022-07-29T12:36:47.291Z,101004.16
2022-07-29T12:41:49.756Z,101004.41
2022-07-29T12:47:04.886Z,100994.47
2022-07-29T12:52:26.075Z,100991.56
2022-07-29T12:57:28.803Z,100989.84
2022-07-29T13:02:30.785Z,100987.78
2022-07-29T13:07:55.238Z,100988.50
2022-07-29T13:13:10.705Z,100990.56
2022-07-29T13:18:32.298Z,100991.94
2022-07-29T13:23:38.321Z,100991.94
2022-07-29T13:28:41.041Z,100990.34
2022-07-29T13:33:46.355Z,100985.19
2022-07-29T13:38:48.364Z,100989.72
2022-07-29T13:43:50.200Z,100983.59
2022-07-29T13:48:52.641Z,100975.41
2022-07-29T13:53:54.445Z,100982.16
2022-07-29T13:58:56.454Z,100980.31
2022-07-29T14:03:58.632Z,100969.28
2022-07-29T14:09:00.525Z,100978.84
2022-07-29T14:14:02.607Z,100977.00
2022-07-29T14:19:04.993Z,100966.13
2022-07-29T14:24:17.652Z,100976.50
2022-07-29T14:29:20.108Z,100978.47
2022-07-29T14:34:22.326Z,100973.81
2022-07-29T14:39:26.904Z,100972.97
2022-07-29T14:44:34.028Z,100970.25
2022-07-29T14:49:36.393Z,100966.59
2022-07-29T14:54:38.358Z,100969.44
2022-07-29T14:59:40.389Z,100965.97
2022-07-29T15:04:42.408Z,100973.59
2022-07-29T15:09:49.633Z,100972.13
2022-07-29T15:14:52.369Z,100973.59
2022-07-29T15:19:54.450Z,100973.47
2022-07-29T15:24:56.345Z,100974.03
2022-07-29T15:29:58.339Z,100968.44
2022-07-29T15:35:00.190Z,100974.31
2022-07-29T15:40:02.005Z,100972.84
2022-07-29T15:45:05.235Z,100971.25
2022-07-29T15:50:13.089Z,100971.50
2022-07-29T15:55:15.833Z,100963.66
2022-07-29T16:00:18.304Z,100969.94
2022-07-29T16:05:20.087Z,100966.47
2022-07-29T16:10:21.840Z,100969.03
2022-07-29T16:15:23.722Z,100970.88
2022-07-29T16:20:25.598Z,100976.25
2022-07-29T16:25:58.224Z,100978.94
2022-07-29T16:30:51.510Z,100977.88
2022-07-29T16:35:53.405Z,100975.31
2022-07-29T16:40:55.279Z,100977.50
2022-07-29T16:45:57.126Z,100975.63
2022-07-29T16:50:59.193Z,100972.97
2022-07-29T16:56:01.704Z,100978.94
2022-07-29T17:01:04.257Z,100978.19
2022-07-29T17:06:06.387Z,100982.47
2022-07-29T17:11:11.159Z,100978.34
2022-07-29T17:16:13.337Z,100982.66
2022-07-29T17:21:16.943Z,100985.34
2022-07-29T17:26:19.483Z,100984.97
2022-07-29T17:31:21.487Z,100988.75
2022-07-29T17:36:27.328Z,100991.81
2022-07-29T17:41:29.463Z,100993.16
2022-07-29T17:46:31.377Z,101005.03
2022-07-29T17:51:33.351Z,101005.50
2022-07-29T17:56:35.076Z,101004.16
2022-07-29T18:01:38.317Z,101012.47
2022-07-29T18:06:40.657Z,101005.16
2022-07-29T18:11:44.570Z,101010.53
2022-07-29T18:16:48.107Z,101014.91
2022-07-29T18:21:55.318Z,101016.16
2022-07-29T18:26:58.711Z,101006.38
2022-07-29T18:32:01.763Z,101012.72
2022-07-29T18:37:04.094Z,101022.50
2022-07-29T18:42:06.636Z,101022.03
2022-07-29T18:47:08.754Z,101017.25
2022-07-29T18:52:13.963Z,101023.50
2022-07-29T18:57:55.108Z,101031.56
2022-07-29T19:02:39.044Z,101038.41
2022-07-29T19:07:44.428Z,101037.06
2022-07-29T19:12:46.641Z,101037.78
2022-07-29T19:17:49.004Z,101046.88
2022-07-29T19:22:51.110Z,101053.47
2022-07-29T19:27:53.238Z,101057.75
2022-07-29T19:32:55.030Z,101054.81
2022-07-29T19:37:59.356Z,101070.13
2022-07-29T19:43:01.383Z,101076.63
2022-07-29T19:48:05.442Z,101085.44
2022-07-29T19:53:07.369Z,101086.91
2022-07-29T19:58:09.394Z,101092.03
2022-07-29T20:03:11.377Z,101094.50
2022-07-29T20:08:13.249Z,101100.94
2022-07-29T20:13:15.100Z,101101.09
2022-07-29T20:18:17.139Z,101120.16
2022-07-29T20:23:19.823Z,101111.69
2022-07-29T20:28:21.898Z,101118.56
2022-07-29T20:33:23.923Z,101127.84
2022-07-29T20:38:25.830Z,101129.78
2022-07-29T20:43:27.985Z,101139.34
2022-07-29T20:48:29.944Z,101141.97
2022-07-29T20:53:33.245Z,101147.72
2022-07-29T20:58:36.680Z,101146.50
2022-07-29T21:03:38.665Z,101151.16
2022-07-29T21:08:40.932Z,101163.75
2022-07-29T21:13:45.588Z,101167.53
2022-07-29T21:18:47.712Z,101171.25
2022-07-29T21:23:49.752Z,101169.50
2022-07-29T21:28:52.220Z,101174.53
2022-07-29T21:33:54.374Z,101170.72
2022-07-29T21:38:56.911Z,101172.34
2022-07-29T21:43:59.627Z,101172.09
2022-07-29T21:49:03.505Z,101167.09
2022-07-29T21:54:05.550Z,101167.09
2022-07-29T21:59:09.726Z,101156.78
2022-07-29T22:04:14.886Z,101161.22
2022-07-29T22:09:16.808Z,101154.00
2022-07-29T22:14:18.912Z,101146.09
2022-07-29T22:19:20.940Z,101149.00
2022-07-29T22:24:22.920Z,101137.84
2022-07-29T22:29:26.925Z,101126.25
2022-07-29T22:34:29.062Z,101145.34
2022-07-29T22:39:35.475Z,101147.78
2022-07-29T22:44:37.550Z,101150.56
2022-07-29T22:49:39.380Z,101147.03
2022-07-29T22:54:41.285Z,101148.34
2022-07-29T22:59:43.474Z,101149.88
2022-07-29T23:04:45.477Z,101151.56
2022-07-29T23:09:47.435Z,101157.22
2022-07-29T23:14:49.389Z,101157.53
2022-07-29T23:19:51.473Z,101149.72
2022-07-29T23:24:53.757Z,101154.38
2022-07-29T23:29:55.732Z,101148.16
2022-07-29T23:34:57.953Z,101150.56
2022-07-29T23:40:00.242Z,101149.00
2022-07-29T23:45:02.454Z,101149.00
2022-07-29T23:50:05.779Z,101147.78
2022-07-29T23:55:37.809Z,101158.06
